CheckWX is a tool to help pilots better visualize weather data.  It is not intended as a substitute for an official pre-flight weather briefing.

06:46:25 UTC

EDMO METAR
Oberpfaffenhofen Airport
Germany
Current

26 mins ago

EDMO 210620Z 24017KT 9000 -RA BKN011 OVC019 10/09 Q1007
Observed
May-21 @ 06:20 UTC
Wind
  • 240° at 17 KTS
Visibility
8,996 meters
Flight Rules
MVFR
Conditions
Light Rain
Cloud Levels
  • Broken at 1,100' AGL
  • Overcast at 1,900' AGL
Temperature
10°C / 50°F
Dewpoint
C / 48°F
Humidity
94%
Altimeter
29.73" Hg
Pressure
1006.92 hPa
Previous

56 mins ago

EDMO 210550Z 24018KT 9000 -RA BKN010 OVC015 10/09 Q1007 RERA
Observed
May-21 @ 05:50 UTC
Wind
  • 240° at 18 KTS
Visibility
8,996 meters
Flight Rules
MVFR
Conditions
Light Rain
Cloud Levels
  • Broken at 1,000' AGL
  • Overcast at 1,500' AGL
Temperature
10°C / 50°F
Dewpoint
C / 48°F
Humidity
94%
Altimeter
29.73" Hg
Pressure
1006.92 hPa
Previous

1 hour ago

EDMO 210520Z 24016KT 8000 RA BKN010 OVC019 10/09 Q1006
Observed
May-21 @ 05:20 UTC
Wind
  • 240° at 16 KTS
Visibility
7,998 meters
Flight Rules
MVFR
Conditions
Rain
Cloud Levels
  • Broken at 1,000' AGL
  • Overcast at 1,900' AGL
Temperature
10°C / 50°F
Dewpoint
C / 48°F
Humidity
94%
Altimeter
29.7" Hg
Pressure
1005.92 hPa